Perkins, Michigan
Current Conditions -  °F | °C
As of 9:15 AM on Wednesday 28 Jan 2015 (Local Time) from KESC Reporting Station
Overcast Overcast  
Wind Chill: 13°   Ceiling: 2400
Heat Index: 21°   Visibility: 10mi
Dew Point: 18°   Wind: 7mph
Humidity: 86%   Direction: 190°S
Pressure: 30.23"   Gusts: NA
Location:  45.98°N, 87.07°W
Report Text: KESC 281415Z AUTO 19006KT 10SM OVC024 M06/M08 A3023 RMK AO1
Loading
Personal Weather Stations






























Interactive Weather Map New forecast layout! Learn more

10-Day Weather Forecast

Advertisements
Track Severe Weather on mobile